sensor_id;sensor_type;location;lat;lon;timestamp;pressure;altitude;pressure_sealevel;temperature;humidity
75401;BME280;63974;47.538;18.972;2023-02-28T00:01:13;101301.19;;;1.07;81.80
75401;BME280;63974;47.538;18.972;2023-02-28T00:04:16;101306.47;;;1.19;81.57
75401;BME280;63974;47.538;18.972;2023-02-28T00:07:19;101304.81;;;1.18;81.50
75401;BME280;63974;47.538;18.972;2023-02-28T00:10:25;101310.41;;;1.25;81.43
75401;BME280;63974;47.538;18.972;2023-02-28T00:13:28;101307.88;;;1.25;81.02
75401;BME280;63974;47.538;18.972;2023-02-28T00:16:31;101311.81;;;1.30;80.68
75401;BME280;63974;47.538;18.972;2023-02-28T00:19:34;101303.13;;;1.33;80.69
75401;BME280;63974;47.538;18.972;2023-02-28T00:22:39;101311.22;;;1.25;80.54
75401;BME280;63974;47.538;18.972;2023-02-28T00:25:42;101323.47;;;1.05;80.96
75401;BME280;63974;47.538;18.972;2023-02-28T00:28:45;101306.25;;;0.93;81.43
75401;BME280;63974;47.538;18.972;2023-02-28T00:31:48;101321.56;;;1.08;81.37
75401;BME280;63974;47.538;18.972;2023-02-28T00:34:51;101326.28;;;1.00;81.06
75401;BME280;63974;47.538;18.972;2023-02-28T00:37:53;101328.75;;;1.02;81.22
75401;BME280;63974;47.538;18.972;2023-02-28T00:40:56;101333.72;;;0.74;81.80
75401;BME280;63974;47.538;18.972;2023-02-28T00:44:00;101333.22;;;0.67;82.52
75401;BME280;63974;47.538;18.972;2023-02-28T00:47:03;101329.00;;;0.82;81.85
75401;BME280;63974;47.538;18.972;2023-02-28T00:50:07;101330.50;;;0.86;81.70
75401;BME280;63974;47.538;18.972;2023-02-28T00:53:11;101336.25;;;0.89;81.52
75401;BME280;63974;47.538;18.972;2023-02-28T00:56:14;101333.81;;;0.88;81.79
75401;BME280;63974;47.538;18.972;2023-02-28T00:59:17;101326.53;;;0.80;80.99
75401;BME280;63974;47.538;18.972;2023-02-28T01:02:22;101324.06;;;0.79;81.18
75401;BME280;63974;47.538;18.972;2023-02-28T01:05:27;101320.16;;;0.72;81.30
75401;BME280;63974;47.538;18.972;2023-02-28T01:08:30;101323.56;;;0.72;81.39
75401;BME280;63974;47.538;18.972;2023-02-28T01:11:33;101320.28;;;0.70;81.89
75401;BME280;63974;47.538;18.972;2023-02-28T01:14:37;101319.66;;;0.65;82.14
75401;BME280;63974;47.538;18.972;2023-02-28T01:17:39;101318.25;;;0.60;81.63
75401;BME280;63974;47.538;18.972;2023-02-28T01:20:42;101332.78;;;0.59;81.65
75401;BME280;63974;47.538;18.972;2023-02-28T01:23:46;101324.22;;;0.60;81.79
75401;BME280;63974;47.538;18.972;2023-02-28T01:26:49;101314.22;;;0.56;81.26
75401;BME280;63974;47.538;18.972;2023-02-28T01:29:52;101318.78;;;0.51;81.31
75401;BME280;63974;47.538;18.972;2023-02-28T01:32:55;101302.50;;;0.36;81.73
75401;BME280;63974;47.538;18.972;2023-02-28T01:36:04;101314.81;;;0.45;82.08
75401;BME280;63974;47.538;18.972;2023-02-28T01:39:07;101315.13;;;0.55;82.16
75401;BME280;63974;47.538;18.972;2023-02-28T01:42:10;101314.72;;;0.62;82.01
75401;BME280;63974;47.538;18.972;2023-02-28T01:45:28;101315.47;;;0.64;81.74
75401;BME280;63974;47.538;18.972;2023-02-28T01:48:36;101302.94;;;0.44;82.14
75401;BME280;63974;47.538;18.972;2023-02-28T01:51:50;101309.59;;;0.47;82.02
75401;BME280;63974;47.538;18.972;2023-02-28T01:54:55;101302.75;;;0.32;81.79
75401;BME280;63974;47.538;18.972;2023-02-28T01:58:01;101297.97;;;0.26;82.45
75401;BME280;63974;47.538;18.972;2023-02-28T02:01:05;101296.22;;;0.26;82.33
75401;BME280;63974;47.538;18.972;2023-02-28T02:04:08;101295.25;;;0.29;81.80
75401;BME280;63974;47.538;18.972;2023-02-28T02:07:12;101277.44;;;0.27;81.58
75401;BME280;63974;47.538;18.972;2023-02-28T02:10:24;101293.31;;;0.17;80.53
75401;BME280;63974;47.538;18.972;2023-02-28T02:20:32;101302.47;;;0.21;81.73
75401;BME280;63974;47.538;18.972;2023-02-28T02:34:25;101299.94;;;0.36;82.60
75401;BME280;63974;47.538;18.972;2023-02-28T02:37:43;101301.44;;;0.40;82.63
75401;BME280;63974;47.538;18.972;2023-02-28T02:41:14;101296.06;;;0.29;82.56
75401;BME280;63974;47.538;18.972;2023-02-28T02:44:30;101305.53;;;0.27;81.30
75401;BME280;63974;47.538;18.972;2023-02-28T02:47:35;101296.84;;;0.14;81.83
75401;BME280;63974;47.538;18.972;2023-02-28T02:50:43;101305.13;;;0.19;81.68
75401;BME280;63974;47.538;18.972;2023-02-28T02:54:17;101305.41;;;0.13;82.10
75401;BME280;63974;47.538;18.972;2023-02-28T02:57:25;101298.66;;;0.12;81.70
75401;BME280;63974;47.538;18.972;2023-02-28T03:00:41;101292.47;;;0.01;81.40
75401;BME280;63974;47.538;18.972;2023-02-28T03:03:45;101297.81;;;-0.03;82.09
75401;BME280;63974;47.538;18.972;2023-02-28T03:06:51;101299.28;;;0.00;81.90
75401;BME280;63974;47.538;18.972;2023-02-28T03:09:57;101292.69;;;-0.03;82.42
75401;BME280;63974;47.538;18.972;2023-02-28T03:20:30;101318.25;;;0.12;81.51
75401;BME280;63974;47.538;18.972;2023-02-28T03:24:16;101318.34;;;0.10;81.39
75401;BME280;63974;47.538;18.972;2023-02-28T03:27:29;101317.44;;;0.11;81.70
75401;BME280;63974;47.538;18.972;2023-02-28T03:33:39;101304.22;;;0.03;81.47
75401;BME280;63974;47.538;18.972;2023-02-28T03:36:48;101305.28;;;-0.01;81.13
75401;BME280;63974;47.538;18.972;2023-02-28T03:39:57;101310.84;;;-0.09;81.48
75401;BME280;63974;47.538;18.972;2023-02-28T03:43:04;101312.38;;;-0.22;82.17
75401;BME280;63974;47.538;18.972;2023-02-28T03:46:12;101297.75;;;-0.19;81.95
75401;BME280;63974;47.538;18.972;2023-02-28T03:49:23;101309.38;;;-0.13;82.49
75401;BME280;63974;47.538;18.972;2023-02-28T03:52:31;101313.41;;;-0.09;81.23
75401;BME280;63974;47.538;18.972;2023-02-28T03:55:43;101309.59;;;-0.18;81.60
75401;BME280;63974;47.538;18.972;2023-02-28T04:01:50;101314.03;;;-0.21;81.27
75401;BME280;63974;47.538;18.972;2023-02-28T04:04:54;101309.97;;;-0.25;81.46
75401;BME280;63974;47.538;18.972;2023-02-28T04:08:05;101311.25;;;-0.17;81.55
75401;BME280;63974;47.538;18.972;2023-02-28T04:11:22;101306.47;;;-0.23;81.86
75401;BME280;63974;47.538;18.972;2023-02-28T04:14:26;101310.88;;;-0.26;81.72
75401;BME280;63974;47.538;18.972;2023-02-28T04:17:29;101304.03;;;-0.26;82.25
75401;BME280;63974;47.538;18.972;2023-02-28T04:20:31;101312.53;;;-0.25;82.09
75401;BME280;63974;47.538;18.972;2023-02-28T04:23:34;101311.19;;;-0.49;83.13
75401;BME280;63974;47.538;18.972;2023-02-28T04:26:37;101308.19;;;-0.23;81.93
75401;BME280;63974;47.538;18.972;2023-02-28T04:29:40;101313.19;;;-0.39;82.40
75401;BME280;63974;47.538;18.972;2023-02-28T04:32:47;101315.22;;;-0.45;81.96
75401;BME280;63974;47.538;18.972;2023-02-28T04:36:08;101324.03;;;-0.34;82.54
75401;BME280;63974;47.538;18.972;2023-02-28T04:39:11;101321.31;;;-0.31;81.52
75401;BME280;63974;47.538;18.972;2023-02-28T04:42:14;101317.09;;;-0.15;81.42
75401;BME280;63974;47.538;18.972;2023-02-28T04:45:17;101313.56;;;-0.12;80.51
75401;BME280;63974;47.538;18.972;2023-02-28T04:48:20;101315.53;;;-0.17;80.80
75401;BME280;63974;47.538;18.972;2023-02-28T04:51:23;101314.13;;;-0.23;81.28
75401;BME280;63974;47.538;18.972;2023-02-28T04:54:26;101306.75;;;-0.29;80.81
75401;BME280;63974;47.538;18.972;2023-02-28T04:57:30;101308.56;;;-0.31;80.98
75401;BME280;63974;47.538;18.972;2023-02-28T05:00:33;101308.19;;;-0.23;80.58
75401;BME280;63974;47.538;18.972;2023-02-28T05:03:36;101313.78;;;-0.17;81.10
75401;BME280;63974;47.538;18.972;2023-02-28T05:06:39;101298.78;;;-0.06;80.89
75401;BME280;63974;47.538;18.972;2023-02-28T05:09:42;101303.72;;;-0.03;80.31
75401;BME280;63974;47.538;18.972;2023-02-28T05:12:45;101313.06;;;-0.36;80.34
75401;BME280;63974;47.538;18.972;2023-02-28T05:15:47;101308.50;;;-0.29;81.60
75401;BME280;63974;47.538;18.972;2023-02-28T05:18:51;101306.47;;;-0.23;80.61
75401;BME280;63974;47.538;18.972;2023-02-28T05:21:56;101312.78;;;-0.47;80.86
75401;BME280;63974;47.538;18.972;2023-02-28T05:24:59;101320.09;;;-0.41;80.99
75401;BME280;63974;47.538;18.972;2023-02-28T05:28:01;101324.31;;;-0.23;80.08
75401;BME280;63974;47.538;18.972;2023-02-28T05:31:04;101322.94;;;-0.13;80.30
75401;BME280;63974;47.538;18.972;2023-02-28T05:34:07;101329.47;;;-0.08;80.26
75401;BME280;63974;47.538;18.972;2023-02-28T05:37:14;101330.38;;;0.08;79.17
75401;BME280;63974;47.538;18.972;2023-02-28T05:40:18;101335.75;;;0.19;79.11
75401;BME280;63974;47.538;18.972;2023-02-28T05:43:23;101334.81;;;0.05;78.56
75401;BME280;63974;47.538;18.972;2023-02-28T05:46:25;101347.66;;;-0.13;79.33
75401;BME280;63974;47.538;18.972;2023-02-28T05:49:29;101345.97;;;0.02;79.19
75401;BME280;63974;47.538;18.972;2023-02-28T05:52:32;101345.78;;;-0.10;78.57
75401;BME280;63974;47.538;18.972;2023-02-28T05:55:34;101353.63;;;-0.31;79.69
75401;BME280;63974;47.538;18.972;2023-02-28T05:58:38;101367.75;;;-0.08;79.20
75401;BME280;63974;47.538;18.972;2023-02-28T06:01:43;101374.28;;;0.15;78.56
75401;BME280;63974;47.538;18.972;2023-02-28T06:04:52;101371.13;;;0.27;78.00
75401;BME280;63974;47.538;18.972;2023-02-28T06:07:55;101370.22;;;0.28;78.30
75401;BME280;63974;47.538;18.972;2023-02-28T06:10:58;101367.03;;;0.40;78.03
75401;BME280;63974;47.538;18.972;2023-02-28T06:14:05;101364.38;;;0.26;77.63
75401;BME280;63974;47.538;18.972;2023-02-28T06:17:09;101362.63;;;0.26;77.97
75401;BME280;63974;47.538;18.972;2023-02-28T06:20:12;101366.47;;;0.18;77.72
75401;BME280;63974;47.538;18.972;2023-02-28T06:23:18;101367.94;;;0.22;77.94
75401;BME280;63974;47.538;18.972;2023-02-28T06:26:21;101378.56;;;0.47;77.10
75401;BME280;63974;47.538;18.972;2023-02-28T06:29:24;101377.31;;;0.38;76.76
75401;BME280;63974;47.538;18.972;2023-02-28T06:32:27;101391.72;;;0.56;77.41
75401;BME280;63974;47.538;18.972;2023-02-28T06:35:30;101387.31;;;0.43;76.92
75401;BME280;63974;47.538;18.972;2023-02-28T06:38:34;101384.69;;;0.44;76.20
75401;BME280;63974;47.538;18.972;2023-02-28T06:41:37;101383.97;;;0.58;75.73
75401;BME280;63974;47.538;18.972;2023-02-28T06:44:56;101386.94;;;0.66;75.69
75401;BME280;63974;47.538;18.972;2023-02-28T06:47:59;101394.09;;;0.59;75.81
75401;BME280;63974;47.538;18.972;2023-02-28T06:51:08;101395.84;;;0.74;75.43
75401;BME280;63974;47.538;18.972;2023-02-28T06:54:12;101399.44;;;0.87;75.37
75401;BME280;63974;47.538;18.972;2023-02-28T06:57:14;101391.91;;;0.69;74.75
75401;BME280;63974;47.538;18.972;2023-02-28T07:00:17;101381.03;;;0.81;75.66
75401;BME280;63974;47.538;18.972;2023-02-28T07:03:20;101393.91;;;0.79;74.99
75401;BME280;63974;47.538;18.972;2023-02-28T07:06:24;101403.22;;;0.96;74.36
75401;BME280;63974;47.538;18.972;2023-02-28T07:09:27;101399.03;;;1.10;75.17
75401;BME280;63974;47.538;18.972;2023-02-28T07:12:32;101397.69;;;0.72;76.14
75401;BME280;63974;47.538;18.972;2023-02-28T07:15:38;101395.00;;;1.06;74.84
75401;BME280;63974;47.538;18.972;2023-02-28T07:18:45;101391.34;;;1.10;73.85
75401;BME280;63974;47.538;18.972;2023-02-28T07:21:48;101390.03;;;1.34;73.31
75401;BME280;63974;47.538;18.972;2023-02-28T07:24:51;101388.63;;;0.82;74.59
75401;BME280;63974;47.538;18.972;2023-02-28T07:27:55;101400.94;;;0.59;75.23
75401;BME280;63974;47.538;18.972;2023-02-28T07:31:06;101400.19;;;0.57;76.29
75401;BME280;63974;47.538;18.972;2023-02-28T07:34:09;101389.19;;;0.87;74.10
75401;BME280;63974;47.538;18.972;2023-02-28T07:37:12;101391.03;;;1.01;75.10
75401;BME280;63974;47.538;18.972;2023-02-28T07:40:15;101389.38;;;0.84;74.46
75401;BME280;63974;47.538;18.972;2023-02-28T07:43:20;101392.03;;;1.14;74.20
75401;BME280;63974;47.538;18.972;2023-02-28T07:46:23;101382.88;;;1.10;73.44
75401;BME280;63974;47.538;18.972;2023-02-28T07:49:26;101404.50;;;0.56;73.85
75401;BME280;63974;47.538;18.972;2023-02-28T07:52:32;101393.19;;;0.28;75.65
75401;BME280;63974;47.538;18.972;2023-02-28T07:55:35;101389.00;;;0.27;76.64
75401;BME280;63974;47.538;18.972;2023-02-28T07:58:38;101398.00;;;0.82;74.86
75401;BME280;63974;47.538;18.972;2023-02-28T08:01:42;101402.00;;;1.03;73.63
75401;BME280;63974;47.538;18.972;2023-02-28T08:04:47;101406.47;;;1.15;73.06
75401;BME280;63974;47.538;18.972;2023-02-28T08:07:50;101402.06;;;0.70;74.18
75401;BME280;63974;47.538;18.972;2023-02-28T08:10:53;101398.88;;;0.65;76.32
75401;BME280;63974;47.538;18.972;2023-02-28T08:13:58;101398.78;;;0.99;74.87
75401;BME280;63974;47.538;18.972;2023-02-28T08:17:03;101407.28;;;1.46;73.62
75401;BME280;63974;47.538;18.972;2023-02-28T08:20:07;101398.66;;;1.63;72.13
75401;BME280;63974;47.538;18.972;2023-02-28T08:23:10;101409.34;;;1.40;72.29
75401;BME280;63974;47.538;18.972;2023-02-28T08:26:13;101411.28;;;1.66;72.26
75401;BME280;63974;47.538;18.972;2023-02-28T08:29:15;101402.06;;;0.70;75.05
75401;BME280;63974;47.538;18.972;2023-02-28T08:32:19;101406.75;;;0.78;75.59
75401;BME280;63974;47.538;18.972;2023-02-28T08:35:31;101405.28;;;1.51;72.44
75401;BME280;63974;47.538;18.972;2023-02-28T08:38:35;101401.59;;;2.00;71.84
75401;BME280;63974;47.538;18.972;2023-02-28T08:41:38;101406.81;;;1.69;72.11
75401;BME280;63974;47.538;18.972;2023-02-28T08:44:41;101400.38;;;2.21;71.03
75401;BME280;63974;47.538;18.972;2023-02-28T08:47:45;101400.53;;;2.04;70.64
75401;BME280;63974;47.538;18.972;2023-02-28T08:50:59;101401.94;;;2.10;70.59
75401;BME280;63974;47.538;18.972;2023-02-28T08:54:09;101401.78;;;2.54;70.17
75401;BME280;63974;47.538;18.972;2023-02-28T08:57:14;101412.53;;;2.17;71.48
75401;BME280;63974;47.538;18.972;2023-02-28T09:00:18;101407.75;;;1.53;71.97
75401;BME280;63974;47.538;18.972;2023-02-28T09:03:22;101411.91;;;2.14;72.07
75401;BME280;63974;47.538;18.972;2023-02-28T09:06:26;101401.69;;;2.84;69.22
75401;BME280;63974;47.538;18.972;2023-02-28T09:09:30;101399.19;;;3.10;66.34
75401;BME280;63974;47.538;18.972;2023-02-28T09:12:34;101398.38;;;2.96;67.42
75401;BME280;63974;47.538;18.972;2023-02-28T09:15:38;101399.84;;;3.00;68.30
75401;BME280;63974;47.538;18.972;2023-02-28T09:18:42;101392.16;;;3.26;67.54
75401;BME280;63974;47.538;18.972;2023-02-28T09:21:45;101398.50;;;3.35;65.69
75401;BME280;63974;47.538;18.972;2023-02-28T09:24:48;101403.56;;;3.22;66.96
75401;BME280;63974;47.538;18.972;2023-02-28T09:27:50;101386.00;;;3.16;67.39
75401;BME280;63974;47.538;18.972;2023-02-28T09:30:54;101403.59;;;3.49;67.18
75401;BME280;63974;47.538;18.972;2023-02-28T09:33:57;101400.00;;;2.13;69.68
75401;BME280;63974;47.538;18.972;2023-02-28T09:37:03;101391.63;;;2.53;70.52
75401;BME280;63974;47.538;18.972;2023-02-28T09:40:07;101401.69;;;2.70;70.29
75401;BME280;63974;47.538;18.972;2023-02-28T09:43:14;101409.47;;;2.40;70.23
75401;BME280;63974;47.538;18.972;2023-02-28T09:49:45;101391.50;;;2.26;70.66
75401;BME280;63974;47.538;18.972;2023-02-28T09:52:49;101402.41;;;2.72;69.79
75401;BME280;63974;47.538;18.972;2023-02-28T09:55:57;101400.69;;;2.86;68.27
75401;BME280;63974;47.538;18.972;2023-02-28T10:03:05;101408.09;;;2.91;70.20
75401;BME280;63974;47.538;18.972;2023-02-28T10:06:15;101412.19;;;3.48;67.98
75401;BME280;63974;47.538;18.972;2023-02-28T10:09:30;101406.09;;;3.63;67.76
75401;BME280;63974;47.538;18.972;2023-02-28T10:12:36;101403.53;;;3.75;66.23
75401;BME280;63974;47.538;18.972;2023-02-28T10:15:46;101397.53;;;3.89;65.39
75401;BME280;63974;47.538;18.972;2023-02-28T10:18:57;101409.13;;;2.46;68.36
75401;BME280;63974;47.538;18.972;2023-02-28T10:22:06;101404.91;;;2.59;70.30
75401;BME280;63974;47.538;18.972;2023-02-28T10:25:26;101411.16;;;3.10;68.61
75401;BME280;63974;47.538;18.972;2023-02-28T10:28:29;101408.84;;;3.33;68.42
75401;BME280;63974;47.538;18.972;2023-02-28T10:31:34;101409.31;;;2.71;69.13
75401;BME280;63974;47.538;18.972;2023-02-28T10:34:38;101407.84;;;2.81;70.03
75401;BME280;63974;47.538;18.972;2023-02-28T10:37:43;101405.91;;;2.71;69.44
75401;BME280;63974;47.538;18.972;2023-02-28T10:40:47;101403.31;;;2.29;69.64
75401;BME280;63974;47.538;18.972;2023-02-28T10:43:50;101405.25;;;2.25;71.20
75401;BME280;63974;47.538;18.972;2023-02-28T10:46:52;101402.34;;;2.73;69.50
75401;BME280;63974;47.538;18.972;2023-02-28T10:49:55;101402.66;;;3.09;70.08
75401;BME280;63974;47.538;18.972;2023-02-28T10:56:25;101386.03;;;3.29;67.75
75401;BME280;63974;47.538;18.972;2023-02-28T10:59:31;101386.84;;;2.33;70.24
75401;BME280;63974;47.538;18.972;2023-02-28T11:02:35;101387.22;;;2.41;69.67
75401;BME280;63974;47.538;18.972;2023-02-28T11:05:43;101381.63;;;3.04;69.36
75401;BME280;63974;47.538;18.972;2023-02-28T11:08:53;101386.41;;;2.82;68.37
75401;BME280;63974;47.538;18.972;2023-02-28T11:11:59;101368.97;;;2.87;68.75
75401;BME280;63974;47.538;18.972;2023-02-28T11:18:30;101373.34;;;2.99;67.00
75401;BME280;63974;47.538;18.972;2023-02-28T11:21:37;101362.91;;;3.02;67.13
75401;BME280;63974;47.538;18.972;2023-02-28T11:24:45;101360.66;;;2.70;68.46
75401;BME280;63974;47.538;18.972;2023-02-28T11:27:52;101358.78;;;3.14;68.01
75401;BME280;63974;47.538;18.972;2023-02-28T11:34:33;101362.38;;;3.77;65.76
75401;BME280;63974;47.538;18.972;2023-02-28T11:37:36;101354.75;;;2.96;67.15
75401;BME280;63974;47.538;18.972;2023-02-28T11:40:43;101357.28;;;2.83;67.40
75401;BME280;63974;47.538;18.972;2023-02-28T11:43:58;101324.97;;;2.67;69.44
75401;BME280;63974;47.538;18.972;2023-02-28T11:50:50;101343.94;;;3.05;67.24
75401;BME280;63974;47.538;18.972;2023-02-28T12:04:16;101326.53;;;2.69;69.36
75401;BME280;63974;47.538;18.972;2023-02-28T12:17:45;101315.81;;;3.30;66.60
75401;BME280;63974;47.538;18.972;2023-02-28T12:27:33;101315.53;;;2.81;67.91
75401;BME280;63974;47.538;18.972;2023-02-28T12:30:51;101312.69;;;2.58;69.46
75401;BME280;63974;47.538;18.972;2023-02-28T12:34:01;101305.41;;;3.45;68.30
75401;BME280;63974;47.538;18.972;2023-02-28T12:37:15;101301.84;;;3.73;66.66
75401;BME280;63974;47.538;18.972;2023-02-28T12:40:22;101313.25;;;3.94;65.50
75401;BME280;63974;47.538;18.972;2023-02-28T12:43:29;101310.63;;;4.08;65.31
75401;BME280;63974;47.538;18.972;2023-02-28T12:46:37;101317.69;;;4.04;66.47
75401;BME280;63974;47.538;18.972;2023-02-28T12:49:49;101327.69;;;3.18;68.69
75401;BME280;63974;47.538;18.972;2023-02-28T12:56:17;101324.16;;;3.46;68.19
75401;BME280;63974;47.538;18.972;2023-02-28T12:59:30;101324.00;;;3.61;67.87
75401;BME280;63974;47.538;18.972;2023-02-28T13:09:24;101305.34;;;3.72;66.79
75401;BME280;63974;47.538;18.972;2023-02-28T13:12:29;101314.38;;;3.65;67.30
75401;BME280;63974;47.538;18.972;2023-02-28T13:15:32;101312.22;;;3.71;68.21
75401;BME280;63974;47.538;18.972;2023-02-28T13:18:44;101301.22;;;3.69;67.31
75401;BME280;63974;47.538;18.972;2023-02-28T13:21:50;101292.97;;;3.64;68.00
75401;BME280;63974;47.538;18.972;2023-02-28T13:24:55;101299.88;;;3.64;68.19
75401;BME280;63974;47.538;18.972;2023-02-28T13:27:58;101292.69;;;3.69;67.05
75401;BME280;63974;47.538;18.972;2023-02-28T13:31:05;101300.00;;;3.87;67.34
75401;BME280;63974;47.538;18.972;2023-02-28T13:34:14;101300.22;;;2.80;69.91
75401;BME280;63974;47.538;18.972;2023-02-28T13:47:38;101300.63;;;3.39;67.54
75401;BME280;63974;47.538;18.972;2023-02-28T13:50:43;101300.31;;;3.31;67.94
75401;BME280;63974;47.538;18.972;2023-02-28T13:54:03;101296.53;;;3.37;68.02
75401;BME280;63974;47.538;18.972;2023-02-28T14:07:19;101297.56;;;3.34;68.69
75401;BME280;63974;47.538;18.972;2023-02-28T14:10:32;101285.03;;;3.30;68.43
75401;BME280;63974;47.538;18.972;2023-02-28T14:13:45;101286.28;;;3.37;68.59
75401;BME280;63974;47.538;18.972;2023-02-28T14:16:49;101292.53;;;2.80;70.29
75401;BME280;63974;47.538;18.972;2023-02-28T14:19:52;101292.31;;;2.83;71.33
75401;BME280;63974;47.538;18.972;2023-02-28T14:23:03;101291.88;;;2.76;70.93
75401;BME280;63974;47.538;18.972;2023-02-28T14:26:26;101281.38;;;3.07;69.65
75401;BME280;63974;47.538;18.972;2023-02-28T14:29:38;101283.44;;;3.15;68.83
75401;BME280;63974;47.538;18.972;2023-02-28T14:36:11;101279.66;;;3.20;68.93
75401;BME280;63974;47.538;18.972;2023-02-28T14:39:20;101279.75;;;3.19;69.13
75401;BME280;63974;47.538;18.972;2023-02-28T14:42:37;101280.53;;;3.07;69.95
75401;BME280;63974;47.538;18.972;2023-02-28T14:45:51;101265.63;;;3.26;69.36
75401;BME280;63974;47.538;18.972;2023-02-28T14:48:55;101281.00;;;3.26;68.79
75401;BME280;63974;47.538;18.972;2023-02-28T14:55:18;101266.06;;;3.45;68.11
75401;BME280;63974;47.538;18.972;2023-02-28T15:01:48;101273.19;;;3.15;68.82
75401;BME280;63974;47.538;18.972;2023-02-28T15:04:56;101278.31;;;3.27;68.17
75401;BME280;63974;47.538;18.972;2023-02-28T15:08:12;101270.53;;;3.16;68.83
75401;BME280;63974;47.538;18.972;2023-02-28T15:11:18;101272.59;;;2.97;69.98
75401;BME280;63974;47.538;18.972;2023-02-28T15:14:21;101269.88;;;3.13;69.90
75401;BME280;63974;47.538;18.972;2023-02-28T15:17:25;101265.19;;;3.19;69.44
75401;BME280;63974;47.538;18.972;2023-02-28T15:20:28;101247.75;;;3.24;69.04
75401;BME280;63974;47.538;18.972;2023-02-28T15:23:31;101259.94;;;3.21;69.06
75401;BME280;63974;47.538;18.972;2023-02-28T15:26:43;101259.34;;;3.17;69.06
75401;BME280;63974;47.538;18.972;2023-02-28T15:29:53;101257.72;;;3.29;70.21
75401;BME280;63974;47.538;18.972;2023-02-28T15:33:19;101257.31;;;3.35;69.88
75401;BME280;63974;47.538;18.972;2023-02-28T15:36:26;101264.19;;;3.34;69.35
75401;BME280;63974;47.538;18.972;2023-02-28T15:39:31;101260.38;;;3.27;69.15
75401;BME280;63974;47.538;18.972;2023-02-28T15:46:09;101267.47;;;3.24;69.84
75401;BME280;63974;47.538;18.972;2023-02-28T15:49:19;101270.53;;;3.29;70.79
75401;BME280;63974;47.538;18.972;2023-02-28T15:52:43;101269.25;;;3.36;70.92
75401;BME280;63974;47.538;18.972;2023-02-28T15:55:55;101271.56;;;3.26;69.82
75401;BME280;63974;47.538;18.972;2023-02-28T15:59:03;101268.19;;;3.26;70.46
75401;BME280;63974;47.538;18.972;2023-02-28T16:02:17;101265.50;;;3.27;70.62
75401;BME280;63974;47.538;18.972;2023-02-28T16:05:27;101271.38;;;3.29;71.37
75401;BME280;63974;47.538;18.972;2023-02-28T16:08:33;101271.31;;;3.17;70.15
75401;BME280;63974;47.538;18.972;2023-02-28T16:11:40;101276.69;;;3.26;69.71
75401;BME280;63974;47.538;18.972;2023-02-28T16:14:43;101280.09;;;3.27;70.61
75401;BME280;63974;47.538;18.972;2023-02-28T16:17:48;101282.03;;;3.23;71.02
75401;BME280;63974;47.538;18.972;2023-02-28T16:20:51;101284.59;;;3.23;71.58
75401;BME280;63974;47.538;18.972;2023-02-28T16:23:54;101283.94;;;3.20;71.26
75401;BME280;63974;47.538;18.972;2023-02-28T16:26:57;101281.06;;;3.12;71.32
75401;BME280;63974;47.538;18.972;2023-02-28T16:30:01;101277.31;;;3.03;70.88
75401;BME280;63974;47.538;18.972;2023-02-28T16:33:04;101280.25;;;3.11;71.69
75401;BME280;63974;47.538;18.972;2023-02-28T16:36:21;101284.56;;;3.11;70.65
75401;BME280;63974;47.538;18.972;2023-02-28T16:39:27;101283.00;;;3.08;71.10
75401;BME280;63974;47.538;18.972;2023-02-28T16:42:31;101273.38;;;3.12;71.20
75401;BME280;63974;47.538;18.972;2023-02-28T16:45:34;101279.59;;;3.08;71.47
75401;BME280;63974;47.538;18.972;2023-02-28T16:48:36;101279.53;;;3.09;71.92
75401;BME280;63974;47.538;18.972;2023-02-28T16:51:39;101284.66;;;3.09;72.21
75401;BME280;63974;47.538;18.972;2023-02-28T16:54:42;101282.38;;;3.05;72.93
75401;BME280;63974;47.538;18.972;2023-02-28T16:57:53;101291.00;;;3.04;73.03
75401;BME280;63974;47.538;18.972;2023-02-28T17:00:56;101291.28;;;2.99;72.92
75401;BME280;63974;47.538;18.972;2023-02-28T17:03:59;101292.47;;;2.94;73.51
75401;BME280;63974;47.538;18.972;2023-02-28T17:07:02;101294.84;;;2.97;73.92
75401;BME280;63974;47.538;18.972;2023-02-28T17:10:22;101291.28;;;2.99;73.50
75401;BME280;63974;47.538;18.972;2023-02-28T17:13:25;101295.28;;;3.03;73.44
75401;BME280;63974;47.538;18.972;2023-02-28T17:16:31;101285.44;;;2.97;73.57
75401;BME280;63974;47.538;18.972;2023-02-28T17:19:35;101293.84;;;2.99;73.52
75401;BME280;63974;47.538;18.972;2023-02-28T17:22:41;101303.41;;;3.10;73.30
75401;BME280;63974;47.538;18.972;2023-02-28T17:25:43;101303.13;;;3.14;73.53
75401;BME280;63974;47.538;18.972;2023-02-28T17:28:59;101301.78;;;3.09;73.66
75401;BME280;63974;47.538;18.972;2023-02-28T17:32:02;101304.31;;;2.96;73.97
75401;BME280;63974;47.538;18.972;2023-02-28T17:35:19;101306.47;;;3.02;73.84
75401;BME280;63974;47.538;18.972;2023-02-28T17:38:22;101315.72;;;3.05;74.20
75401;BME280;63974;47.538;18.972;2023-02-28T17:41:25;101308.75;;;3.07;74.29
75401;BME280;63974;47.538;18.972;2023-02-28T17:44:32;101302.16;;;3.03;74.20
75401;BME280;63974;47.538;18.972;2023-02-28T17:47:36;101315.72;;;3.05;74.37
75401;BME280;63974;47.538;18.972;2023-02-28T17:50:39;101322.91;;;3.00;74.56
75401;BME280;63974;47.538;18.972;2023-02-28T17:53:42;101313.16;;;3.05;74.39
75401;BME280;63974;47.538;18.972;2023-02-28T17:56:45;101302.16;;;3.03;74.39
75401;BME280;63974;47.538;18.972;2023-02-28T17:59:48;101314.81;;;3.06;73.91
75401;BME280;63974;47.538;18.972;2023-02-28T18:02:51;101318.38;;;3.03;74.39
75401;BME280;63974;47.538;18.972;2023-02-28T18:05:54;101312.38;;;2.90;74.14
75401;BME280;63974;47.538;18.972;2023-02-28T18:08:59;101314.13;;;2.90;74.10
75401;BME280;63974;47.538;18.972;2023-02-28T18:12:02;101313.19;;;2.91;74.47
75401;BME280;63974;47.538;18.972;2023-02-28T18:15:05;101304.97;;;2.86;74.50